SBOSBO ABZ / EGPD
Speedbird OnlineSpeedbird Online ABZ / EGPD

Aberdeen Dyce Airport
00:33 3.6°C

Location Aberdeen, United Kingdom
Latitude: 57.201900482177734
Longitude: -2.197779893875122
Web Airport Website | Wikipedia
Altitude 66 Meter / 215 Feet
Distance 650 KM / 404 Miles
from London.
Time Zone UTC 0 hours (Europe/London)
Codes IATA: ABZ
ICAO: EGPD
Runways
RunwayLength (m)Surface
05577Concrete
14660Asphalt
161953Asphalt
18260Asphalt
23577Concrete
32660Asphalt
341953Asphalt
36260Asphalt
Radio
TypeDescriptionFrequency
APPABERDEEN APP119.055
ATISABERDEEN ATIS121.855
GNDABERDEEN GND121.705
INFOABERDEEN INFO135.175
RADARAberdeen Director128.305
RDRAberdeen Offshore Radar134.1
TWRABERDEEN TWR118.105
Live ATC
METAR EGPD 081420Z AUTO 21023KT 9999 BKN032 09/02 Q1016 NOSIG
TAF TAF EGPD 081100Z 0812/0912 21018G28KT 9999 SCT025 TEMPO 0812/0819 22022G38KT PROB40 TEMPO 0818/0821 5000 RA BKN012 BECMG 0819/0822 25009KT PROB40 TEMPO 0822/0903 26015G25KT
Weather As Of 09 Feb 2023 00:33
Description Clear sky
Wind 19 km/h from South-West (240°)
Cloud Cover 0%
Precipitation Rain: none, Snow: none
Sunrise 07:52
Sunset 16:53
Lounges British Airways Lounge (Open), Main Terminal
Rotations During the last 90 days there were
515 flights from LHR
42 flights from LCY
513 flights to LHR
22 flights to LCY



Support Speedbird Online

© 2017-2023 Speedbird Online